Time;durP1;ratioP1;P1;durP2;ratioP2;P2;SDS_P1;SDS_P2;PMS_P1;PMS_P2;Temp;Humidity;BMP_temperature;BMP_pressure;BME280_temperature;BME280_humidity;BME280_pressure;Samples;Min_cycle;Max_cycle;Signal;HPM_P1;HPM_P2
2023/06/21 00:02:28;;;;;;;21.70;17.52;;;19.30;99.90;;;;;;5051252;28;20133;-80
2023/06/21 00:05:16;;;;;;;19.98;17.52;;;19.30;99.90;;;;;;5050124;28;20090;-83
2023/06/21 00:08:03;;;;;;;20.95;14.85;;;19.30;99.90;;;;;;5033285;28;20092;-78
2023/06/21 00:10:49;;;;;;;22.65;16.50;;;19.30;99.90;;;;;;5050448;28;20136;-87
2023/06/21 00:13:35;;;;;;;21.88;17.33;;;19.30;99.90;;;;;;5055860;28;20057;-87
2023/06/21 00:16:22;;;;;;;21.65;16.90;;;19.40;99.90;;;;;;5051711;28;20056;-87
2023/06/21 00:19:09;;;;;;;20.95;16.77;;;19.40;99.90;;;;;;5051504;28;20053;-79
2023/06/21 00:21:56;;;;;;;22.85;17.02;;;19.40;99.90;;;;;;5049860;28;20045;-78
2023/06/21 00:24:43;;;;;;;22.13;16.05;;;19.40;99.90;;;;;;5051179;28;20106;-78
2023/06/21 00:27:29;;;;;;;22.77;17.98;;;19.40;99.90;;;;;;5032664;28;20139;-87
2023/06/21 00:30:15;;;;;;;27.52;20.58;;;19.40;99.90;;;;;;5031897;28;20495;-77
2023/06/21 00:33:02;;;;;;;28.30;21.35;;;19.40;99.90;;;;;;5057549;28;20052;-78
2023/06/21 00:35:48;;;;;;;25.63;19.90;;;19.30;99.90;;;;;;5052705;28;20041;-86
2023/06/21 00:38:34;;;;;;;25.95;20.65;;;19.30;99.90;;;;;;5031733;28;20052;-83
2023/06/21 00:41:20;;;;;;;26.63;21.55;;;19.30;99.90;;;;;;5036733;28;20048;-86
2023/06/21 00:44:08;;;;;;;27.85;22.10;;;19.20;99.90;;;;;;5049980;28;20489;-86
2023/06/21 00:46:54;;;;;;;32.13;25.42;;;19.30;99.90;;;;;;5053454;28;20045;-89
2023/06/21 00:49:40;;;;;;;38.50;25.25;;;19.20;99.90;;;;;;5032179;28;20057;-89
2023/06/21 00:52:26;;;;;;;31.73;25.50;;;19.20;99.90;;;;;;5049673;28;20187;-88
2023/06/21 00:55:13;;;;;;;32.75;25.35;;;19.20;99.90;;;;;;5050967;28;20091;-81
2023/06/21 00:57:59;;;;;;;37.75;26.05;;;19.20;99.90;;;;;;5050636;28;20179;-86
2023/06/21 01:00:45;;;;;;;28.98;23.92;;;19.20;99.90;;;;;;5050260;28;20049;-86
2023/06/21 01:03:31;;;;;;;43.50;30.17;;;19.20;99.90;;;;;;5051146;28;20045;-85
2023/06/21 01:07:00;;;;;;;40.97;30.57;;;19.30;99.90;;;;;;5506561;23;21484;-88
2023/06/21 01:10:08;;;;;;;57.00;39.90;;;19.30;99.90;;;;;;4933012;28;20055;-77
2023/06/21 01:13:43;;;;;;;51.60;37.38;;;19.30;99.90;;;;;;4971480;28;20054;-77
2023/06/21 01:16:37;;;;;;;44.55;33.38;;;19.20;99.90;;;;;;4932436;28;20521;-80
2023/06/21 01:19:32;;;;;;;45.58;32.75;;;19.20;99.90;;;;;;4972119;28;20439;-88
2023/06/21 01:22:21;;;;;;;47.25;34.20;;;19.20;99.90;;;;;;4957050;28;20058;-89
2023/06/21 01:25:20;;;;;;;47.95;34.70;;;19.20;99.90;;;;;;4942783;28;20059;-77
2023/06/21 01:28:43;;;;;;;45.35;33.30;;;19.20;99.90;;;;;;4954379;28;20054;-77
2023/06/21 01:31:30;;;;;;;48.58;33.55;;;19.20;99.90;;;;;;4953660;28;20509;-76
2023/06/21 01:34:17;;;;;;;44.55;31.85;;;19.20;99.90;;;;;;4970377;28;20057;-85
2023/06/21 01:37:06;;;;;;;42.63;32.30;;;19.10;99.90;;;;;;4970910;28;20530;-84
2023/06/21 01:39:52;;;;;;;44.30;30.35;;;19.10;99.90;;;;;;4978431;28;20050;-82
2023/06/21 01:42:38;;;;;;;48.50;35.42;;;19.10;99.90;;;;;;4972218;28;20058;-89
2023/06/21 01:45:24;;;;;;;45.00;33.85;;;19.10;99.90;;;;;;4955015;28;20147;-85
2023/06/21 01:48:11;;;;;;;49.50;33.60;;;19.10;99.90;;;;;;4973422;28;20410;-90
2023/06/21 01:50:58;;;;;;;40.70;28.15;;;19.00;99.90;;;;;;4971599;28;20046;-80
2023/06/21 01:53:44;;;;;;;43.85;28.90;;;19.00;99.90;;;;;;4971294;28;20486;-77
2023/06/21 01:56:33;;;;;;;42.75;28.17;;;18.90;99.90;;;;;;4973908;28;20120;-77
2023/06/21 01:59:20;;;;;;;45.22;30.73;;;18.90;99.90;;;;;;4953293;28;20082;-81
2023/06/21 02:02:08;;;;;;;42.65;27.88;;;18.90;99.90;;;;;;4971060;28;20118;-78
2023/06/21 02:04:54;;;;;;;43.38;30.42;;;18.90;99.90;;;;;;4971425;28;20146;-77
2023/06/21 02:07:43;;;;;;;39.15;26.48;;;18.80;99.90;;;;;;4957003;28;20058;-77
2023/06/21 02:10:29;;;;;;;48.42;30.80;;;18.80;99.90;;;;;;4971461;28;20050;-77
2023/06/21 02:13:16;;;;;;;49.17;32.17;;;18.80;99.90;;;;;;4974090;28;20047;-81
2023/06/21 02:16:02;;;;;;;47.60;30.95;;;18.80;99.90;;;;;;4957593;28;20051;-79
2023/06/21 02:18:48;;;;;;;47.13;30.38;;;18.80;99.90;;;;;;4970956;28;20050;-77
2023/06/21 02:21:37;;;;;;;45.20;30.42;;;18.70;99.90;;;;;;4970188;28;20057;-79
2023/06/21 02:24:23;;;;;;;46.17;30.02;;;18.70;99.90;;;;;;4970853;28;20055;-79
2023/06/21 02:27:09;;;;;;;45.85;31.63;;;18.70;99.90;;;;;;4969772;28;20570;-85
2023/06/21 02:29:55;;;;;;;50.20;31.50;;;18.70;99.90;;;;;;4971538;28;20053;-84
2023/06/21 02:32:41;;;;;;;52.50;32.38;;;18.70;99.90;;;;;;4974079;28;20467;-85
2023/06/21 02:35:27;;;;;;;50.70;32.55;;;18.60;99.90;;;;;;4973400;28;20065;-79
2023/06/21 02:38:13;;;;;;;46.05;30.77;;;18.60;99.90;;;;;;4976063;28;20390;-83
2023/06/21 02:40:59;;;;;;;47.78;32.35;;;18.60;99.90;;;;;;4975152;28;20405;-79
2023/06/21 02:43:45;;;;;;;45.15;30.13;;;18.60;99.90;;;;;;4967365;28;20059;-81
2023/06/21 02:46:31;;;;;;;51.67;32.33;;;18.60;99.90;;;;;;4961260;28;20046;-78
2023/06/21 02:49:17;;;;;;;51.03;32.63;;;18.60;99.90;;;;;;4957624;28;20059;-77
2023/06/21 02:52:04;;;;;;;51.03;32.20;;;18.60;99.90;;;;;;4977393;28;20133;-82
2023/06/21 02:54:52;;;;;;;49.90;31.67;;;18.60;99.90;;;;;;4977118;28;20042;-82
2023/06/21 02:57:38;;;;;;;44.97;30.38;;;18.60;99.90;;;;;;4974282;28;20157;-77
2023/06/21 03:00:33;;;;;;;47.38;30.92;;;18.60;99.90;;;;;;4959943;28;20050;-76
2023/06/21 03:03:19;;;;;;;44.45;32.55;;;18.70;99.90;;;;;;4956903;28;20042;-77
2023/06/21 03:06:05;;;;;;;50.50;32.35;;;18.70;99.90;;;;;;4974133;28;20133;-77
2023/06/21 03:08:51;;;;;;;52.58;32.60;;;18.70;99.90;;;;;;4974611;28;20094;-79
2023/06/21 03:11:37;;;;;;;49.28;31.88;;;18.70;99.90;;;;;;4973141;28;20058;-76
2023/06/21 03:14:24;;;;;;;49.00;32.13;;;18.70;99.90;;;;;;4956978;28;20132;-76
2023/06/21 03:17:10;;;;;;;48.67;30.65;;;18.70;99.90;;;;;;4975087;28;20101;-77
2023/06/21 03:19:56;;;;;;;47.30;30.35;;;18.70;99.90;;;;;;4956930;28;20058;-87
2023/06/21 03:22:43;;;;;;;50.45;31.95;;;18.70;99.90;;;;;;4973975;28;20056;-85
2023/06/21 03:25:29;;;;;;;46.15;30.88;;;18.70;99.90;;;;;;4979916;28;20057;-76
2023/06/21 03:28:15;;;;;;;47.60;29.83;;;18.60;99.90;;;;;;4955252;28;20047;-87
2023/06/21 03:31:02;;;;;;;52.50;29.95;;;18.60;99.90;;;;;;4974784;28;20057;-85
2023/06/21 03:33:48;;;;;;;47.58;29.63;;;18.50;99.90;;;;;;4975978;28;20061;-87
2023/06/21 03:36:34;;;;;;;47.38;30.08;;;18.50;99.90;;;;;;4975542;28;20055;-87
2023/06/21 03:39:20;;;;;;;51.20;28.45;;;18.50;99.90;;;;;;4975643;28;20086;-86
2023/06/21 03:42:07;;;;;;;46.65;29.63;;;18.40;99.90;;;;;;4972790;28;20065;-80
2023/06/21 03:44:53;;;;;;;51.10;26.02;;;18.40;99.90;;;;;;4972686;28;20129;-77
2023/06/21 03:47:40;;;;;;;45.08;25.75;;;18.30;99.90;;;;;;4959026;28;20058;-80
2023/06/21 03:50:26;;;;;;;44.35;26.67;;;18.40;99.90;;;;;;4973728;28;20540;-77
2023/06/21 03:53:13;;;;;;;46.58;27.30;;;18.30;99.90;;;;;;4973303;28;20059;-81
2023/06/21 03:55:59;;;;;;;44.17;26.00;;;18.30;99.90;;;;;;4960008;28;20051;-87
2023/06/21 03:58:45;;;;;;;41.40;25.73;;;18.30;99.90;;;;;;4960868;28;20054;-83
2023/06/21 04:01:31;;;;;;;42.08;25.30;;;18.30;99.90;;;;;;4973280;28;20050;-84
2023/06/21 04:04:17;;;;;;;42.53;24.40;;;18.30;99.90;;;;;;4972704;28;20058;-86
2023/06/21 04:07:03;;;;;;;41.47;24.13;;;18.30;99.90;;;;;;4972920;28;20059;-87
2023/06/21 04:09:49;;;;;;;48.88;25.48;;;18.30;99.90;;;;;;4974137;28;20050;-85
2023/06/21 04:12:36;;;;;;;45.45;24.67;;;18.30;99.90;;;;;;4973127;28;20144;-86
2023/06/21 04:15:22;;;;;;;41.10;22.27;;;18.30;99.90;;;;;;4973478;28;20138;-84
2023/06/21 04:18:08;;;;;;;46.50;21.77;;;18.30;99.90;;;;;;4977475;28;20644;-87
2023/06/21 04:20:54;;;;;;;39.13;22.83;;;18.20;99.90;;;;;;4972903;28;20051;-87
2023/06/21 04:23:40;;;;;;;41.25;21.95;;;18.20;99.90;;;;;;4973715;28;20115;-88
2023/06/21 04:26:28;;;;;;;42.00;23.08;;;18.20;99.90;;;;;;4973649;28;20097;-89
2023/06/21 04:29:18;;;;;;;36.35;22.17;;;18.20;99.90;;;;;;4972899;28;20470;-77
2023/06/21 04:32:04;;;;;;;34.30;19.70;;;18.20;99.90;;;;;;4955699;28;20782;-89
2023/06/21 04:34:50;;;;;;;39.40;21.45;;;18.20;99.90;;;;;;4972879;28;20142;-88
2023/06/21 04:37:45;;;;;;;38.42;21.48;;;18.20;99.90;;;;;;4974062;28;20060;-82
2023/06/21 04:40:31;;;;;;;36.03;20.47;;;18.20;99.90;;;;;;4942204;28;20063;-81
2023/06/21 04:43:17;;;;;;;39.00;20.40;;;18.20;99.90;;;;;;4973963;28;20534;-83
2023/06/21 04:46:03;;;;;;;39.67;20.73;;;18.20;99.90;;;;;;4954654;28;20073;-77
2023/06/21 04:48:50;;;;;;;38.97;19.38;;;18.20;99.90;;;;;;4971996;28;20522;-88
2023/06/21 04:51:36;;;;;;;43.63;21.17;;;18.10;99.90;;;;;;4973205;28;20051;-87
2023/06/21 04:54:22;;;;;;;37.13;19.30;;;18.20;99.90;;;;;;4973593;28;20141;-80
2023/06/21 04:57:12;;;;;;;38.85;19.55;;;18.20;99.90;;;;;;4956400;28;20049;-89
2023/06/21 04:59:58;;;;;;;41.65;19.02;;;18.20;99.90;;;;;;4972476;28;20074;-84
2023/06/21 05:02:46;;;;;;;35.72;18.88;;;18.20;99.90;;;;;;4972226;28;20090;-89
2023/06/21 05:05:32;;;;;;;31.83;18.15;;;18.30;99.90;;;;;;4973177;28;20081;-87
2023/06/21 05:08:24;;;;;;;33.40;18.08;;;18.30;99.90;;;;;;5368531;23;20146;-86
2023/06/21 05:11:10;;;;;;;32.08;17.48;;;18.40;99.90;;;;;;4972227;28;20137;-81
2023/06/21 05:13:56;;;;;;;38.92;18.75;;;18.40;99.90;;;;;;4973794;28;20042;-79
2023/06/21 05:16:43;;;;;;;29.02;18.52;;;18.40;99.90;;;;;;4956673;28;20102;-81
2023/06/21 05:19:29;;;;;;;35.20;19.08;;;18.40;99.90;;;;;;4973252;28;20106;-78
2023/06/21 05:22:15;;;;;;;36.55;20.58;;;18.50;99.90;;;;;;4956226;28;20082;-78
2023/06/21 05:25:04;;;;;;;29.75;19.67;;;18.40;99.90;;;;;;4973113;28;20046;-85
2023/06/21 05:27:50;;;;;;;34.58;21.70;;;18.40;99.90;;;;;;4973654;28;20051;-81
2023/06/21 05:30:36;;;;;;;38.05;22.38;;;18.50;99.90;;;;;;4971882;28;20086;-87
2023/06/21 05:33:22;;;;;;;44.80;24.13;;;18.40;99.90;;;;;;4956524;28;20075;-86
2023/06/21 05:36:09;;;;;;;33.75;23.10;;;18.40;99.90;;;;;;4972855;28;20062;-83
2023/06/21 05:38:55;;;;;;;42.38;24.08;;;18.50;99.90;;;;;;4972613;28;20051;-86
2023/06/21 05:41:41;;;;;;;35.45;22.40;;;18.50;99.90;;;;;;4953945;28;20155;-84
2023/06/21 05:44:27;;;;;;;33.58;22.08;;;18.50;99.90;;;;;;4972521;28;20419;-78
2023/06/21 05:47:14;;;;;;;42.35;23.23;;;18.50;99.90;;;;;;4972821;28;20050;-81
2023/06/21 05:50:00;;;;;;;36.95;23.67;;;18.50;99.90;;;;;;4971683;28;20526;-77
2023/06/21 05:52:46;;;;;;;35.45;24.02;;;18.60;99.90;;;;;;4972673;28;20073;-81
2023/06/21 05:55:32;;;;;;;38.63;24.02;;;18.70;99.90;;;;;;4976843;28;20055;-77
2023/06/21 05:58:20;;;;;;;38.95;24.95;;;18.70;99.90;;;;;;4973643;28;20097;-82
2023/06/21 06:01:06;;;;;;;37.53;23.75;;;18.80;99.90;;;;;;4972257;28;20069;-84
2023/06/21 06:03:52;;;;;;;35.55;23.85;;;18.90;99.90;;;;;;4972581;28;20050;-78
2023/06/21 06:06:40;;;;;;;36.65;23.15;;;19.10;99.90;;;;;;4973131;28;20050;-81
2023/06/21 06:09:26;;;;;;;31.92;21.80;;;19.10;99.90;;;;;;4973453;28;20082;-81
2023/06/21 06:12:12;;;;;;;33.60;22.77;;;19.30;99.90;;;;;;4972220;28;20059;-79
2023/06/21 06:14:58;;;;;;;29.80;20.85;;;19.30;99.90;;;;;;4956270;28;20055;-82
2023/06/21 06:17:46;;;;;;;28.30;20.83;;;19.30;99.90;;;;;;4954877;28;20054;-82
2023/06/21 06:20:32;;;;;;;31.25;19.65;;;19.40;99.90;;;;;;4972437;28;20393;-79
2023/06/21 06:23:18;;;;;;;32.00;20.20;;;19.40;99.90;;;;;;4971145;28;20051;-79
2023/06/21 06:26:04;;;;;;;29.30;18.98;;;19.50;99.90;;;;;;4958129;28;20405;-79
2023/06/21 06:28:51;;;;;;;28.00;17.38;;;19.60;99.90;;;;;;4972557;28;20081;-85
2023/06/21 06:31:37;;;;;;;23.15;17.83;;;19.60;99.90;;;;;;4971243;28;20435;-82
2023/06/21 06:34:24;;;;;;;27.58;16.05;;;19.70;99.90;;;;;;4974054;28;20051;-83
2023/06/21 06:37:11;;;;;;;22.10;15.20;;;19.80;99.90;;;;;;4954638;28;20047;-83
2023/06/21 06:39:57;;;;;;;21.17;15.45;;;19.80;99.90;;;;;;4972122;28;20047;-78
2023/06/21 06:42:43;;;;;;;20.40;14.48;;;20.10;99.90;;;;;;4971223;28;20142;-84
2023/06/21 06:45:29;;;;;;;21.58;14.90;;;20.10;99.90;;;;;;4971563;28;20086;-86
2023/06/21 06:48:15;;;;;;;20.90;12.68;;;20.20;99.90;;;;;;4972865;28;20055;-86
2023/06/21 06:51:01;;;;;;;16.00;11.32;;;20.30;99.90;;;;;;4972873;28;20058;-83
2023/06/21 06:53:50;;;;;;;16.85;11.05;;;20.50;99.90;;;;;;4971686;28;20161;-78
2023/06/21 06:56:37;;;;;;;18.85;10.82;;;20.50;99.90;;;;;;4976072;28;20388;-85
2023/06/21 06:59:23;;;;;;;12.57;8.95;;;20.60;99.90;;;;;;4972611;28;20114;-80
2023/06/21 07:02:09;;;;;;;17.20;9.65;;;20.70;99.90;;;;;;4971890;28;20058;-82
2023/06/21 07:04:55;;;;;;;14.02;10.25;;;20.70;99.90;;;;;;4971892;28;20055;-80
2023/06/21 07:07:41;;;;;;;14.70;9.02;;;20.80;99.90;;;;;;4970125;28;20558;-81
2023/06/21 07:10:27;;;;;;;13.73;8.48;;;20.90;99.90;;;;;;4973424;28;20055;-85
2023/06/21 07:13:13;;;;;;;13.93;9.38;;;20.90;99.90;;;;;;4972559;28;20054;-84
2023/06/21 07:15:59;;;;;;;13.77;9.20;;;21.10;99.90;;;;;;4970409;28;20055;-84
2023/06/21 07:18:45;;;;;;;15.23;9.10;;;21.30;99.90;;;;;;4972622;28;20055;-88
2023/06/21 07:21:32;;;;;;;14.45;9.00;;;21.30;99.90;;;;;;4979028;28;20077;-81
2023/06/21 07:24:18;;;;;;;13.57;9.63;;;21.40;99.90;;;;;;4981935;28;20468;-89
2023/06/21 07:27:08;;;;;;;11.70;7.43;;;21.40;99.90;;;;;;4978973;28;20065;-89
2023/06/21 07:29:54;;;;;;;12.82;7.93;;;21.40;99.90;;;;;;4976524;28;20439;-91
2023/06/21 07:32:40;;;;;;;15.95;9.63;;;21.70;99.90;;;;;;4976621;28;20566;-89
2023/06/21 07:35:26;;;;;;;13.30;8.80;;;21.70;99.90;;;;;;4975612;28;20053;-92
2023/06/21 07:38:13;;;;;;;13.85;8.20;;;21.80;99.90;;;;;;4975869;28;20050;-84
2023/06/21 07:40:59;;;;;;;14.48;8.00;;;22.00;99.90;;;;;;4975450;28;20404;-82
2023/06/21 07:43:44;;;;;;;13.18;7.22;;;22.10;99.90;;;;;;4960147;28;20490;-81
2023/06/21 07:46:31;;;;;;;10.73;6.82;;;22.30;99.90;;;;;;4958687;28;20059;-83
2023/06/21 07:49:17;;;;;;;14.50;7.45;;;22.40;99.90;;;;;;4975488;28;20137;-85
2023/06/21 07:52:04;;;;;;;11.27;7.32;;;22.20;99.90;;;;;;4957761;28;20090;-86
2023/06/21 07:54:50;;;;;;;11.70;7.28;;;22.10;99.90;;;;;;4974063;28;20399;-80
2023/06/21 07:57:37;;;;;;;13.38;7.95;;;22.10;99.90;;;;;;4974446;28;20047;-84
2023/06/21 08:00:23;;;;;;;10.90;7.68;;;22.30;99.90;;;;;;4975338;28;20051;-90
2023/06/21 08:03:09;;;;;;;12.88;8.57;;;22.30;99.90;;;;;;4957248;28;20069;-86
2023/06/21 08:05:55;;;;;;;10.38;6.70;;;22.30;99.90;;;;;;4975441;28;20069;-86
2023/06/21 08:08:41;;;;;;;10.80;6.45;;;22.30;99.90;;;;;;4956673;28;20062;-78
2023/06/21 08:11:27;;;;;;;10.65;6.30;;;22.30;99.90;;;;;;4974760;28;20085;-83
2023/06/21 08:14:13;;;;;;;10.00;6.57;;;22.30;99.90;;;;;;4974495;28;20105;-85
2023/06/21 08:16:59;;;;;;;10.60;6.10;;;22.40;99.90;;;;;;4975055;28;20049;-81
2023/06/21 08:19:46;;;;;;;12.63;7.53;;;22.70;99.90;;;;;;4943972;28;20090;-80
2023/06/21 08:22:32;;;;;;;11.48;6.47;;;22.90;99.90;;;;;;4958740;28;20094;-80
2023/06/21 08:25:18;;;;;;;8.77;6.07;;;23.00;99.90;;;;;;4958147;28;20113;-82
2023/06/21 08:28:04;;;;;;;11.80;6.72;;;23.10;99.90;;;;;;4974099;28;20062;-87
2023/06/21 08:30:50;;;;;;;12.35;6.25;;;23.20;99.90;;;;;;4957210;28;20046;-82
2023/06/21 08:33:36;;;;;;;11.65;7.00;;;23.40;99.90;;;;;;4974140;28;20432;-81
2023/06/21 08:36:22;;;;;;;9.40;6.65;;;23.40;99.90;;;;;;4974606;28;20050;-81
2023/06/21 08:39:09;;;;;;;9.65;5.63;;;23.60;99.90;;;;;;4958005;28;20867;-78
2023/06/21 08:41:55;;;;;;;9.57;5.20;;;23.80;99.90;;;;;;4974229;28;20046;-81
2023/06/21 08:44:41;;;;;;;11.68;6.53;;;24.10;99.90;;;;;;4977363;28;20466;-81
2023/06/21 08:47:28;;;;;;;10.10;6.15;;;24.00;99.90;;;;;;4981643;28;20155;-80
2023/06/21 08:50:17;;;;;;;13.75;6.93;;;23.90;99.90;;;;;;4984049;28;20059;-78
2023/06/21 08:53:07;;;;;;;11.52;5.80;;;24.10;99.90;;;;;;4982301;28;20054;-79
2023/06/21 08:55:56;;;;;;;11.98;6.03;;;24.10;99.90;;;;;;4974248;28;20047;-85
2023/06/21 08:58:54;;;;;;;8.30;5.82;;;24.20;99.90;;;;;;4972924;28;20046;-79
2023/06/21 09:01:50;;;;;;;8.18;5.47;;;24.00;99.90;;;;;;4956264;28;20104;-79
2023/06/21 09:04:44;;;;;;;13.85;5.53;;;24.20;99.90;;;;;;4974061;28;20058;-80
2023/06/21 09:07:32;;;;;;;9.52;5.68;;;24.40;99.90;;;;;;4973364;28;20055;-83
2023/06/21 09:10:21;;;;;;;9.68;5.20;;;24.50;99.90;;;;;;4971521;28;20051;-78
2023/06/21 09:13:08;;;;;;;9.07;5.30;;;24.90;99.90;;;;;;4974110;28;20061;-84
2023/06/21 09:15:58;;;;;;;9.32;5.78;;;25.10;99.90;;;;;;4975628;28;20054;-83
2023/06/21 09:18:45;;;;;;;10.52;5.38;;;25.30;99.90;;;;;;4979325;28;20051;-89
2023/06/21 09:21:34;;;;;;;7.68;4.25;;;25.30;99.90;;;;;;4962849;28;20059;-80
2023/06/21 09:24:20;;;;;;;8.38;4.68;;;25.30;99.90;;;;;;4979163;28;20047;-86
2023/06/21 09:27:06;;;;;;;10.93;5.22;;;25.50;99.90;;;;;;4980787;28;20151;-88
2023/06/21 09:29:52;;;;;;;9.32;5.82;;;25.60;99.90;;;;;;4979494;28;20050;-80
2023/06/21 09:32:38;;;;;;;11.75;5.65;;;25.90;99.90;;;;;;4945540;28;20511;-80
2023/06/21 09:35:24;;;;;;;10.55;5.53;;;25.90;99.90;;;;;;4975983;28;20054;-81
2023/06/21 09:38:23;;;;;;;11.02;5.78;;;25.70;99.90;;;;;;4973311;28;20061;-85
2023/06/21 09:41:11;;;;;;;9.40;5.28;;;26.00;99.90;;;;;;4974388;28;20047;-88
2023/06/21 09:43:58;;;;;;;8.73;6.00;;;26.30;99.20;;;;;;4972115;28;20054;-84
2023/06/21 09:46:47;;;;;;;9.15;5.28;;;26.20;98.80;;;;;;4973728;28;20077;-81
2023/06/21 09:49:33;;;;;;;9.07;5.50;;;26.10;99.10;;;;;;4972281;28;20101;-82
2023/06/21 09:52:22;;;;;;;8.02;5.80;;;26.10;98.50;;;;;;4954137;28;20065;-84
2023/06/21 09:55:13;;;;;;;9.75;5.30;;;26.20;98.60;;;;;;4972018;28;20191;-81
2023/06/21 09:58:00;;;;;;;10.43;7.25;;;26.40;98.50;;;;;;4940463;28;20047;-83
2023/06/21 10:00:46;;;;;;;12.43;6.75;;;26.10;98.60;;;;;;4954355;28;20050;-83
2023/06/21 10:03:33;;;;;;;12.23;6.82;;;26.10;98.40;;;;;;4954620;28;20059;-80
2023/06/21 10:06:28;;;;;;;8.77;4.82;;;26.20;98.70;;;;;;4971669;28;20466;-79
2023/06/21 10:09:14;;;;;;;10.95;5.72;;;26.40;97.80;;;;;;4970606;28;20277;-78
2023/06/21 10:12:00;;;;;;;10.65;5.25;;;26.80;98.10;;;;;;4972176;28;20051;-79
2023/06/21 10:14:46;;;;;;;8.80;5.20;;;27.10;97.50;;;;;;4972084;28;20142;-75
2023/06/21 10:17:33;;;;;;;8.27;4.78;;;27.40;98.00;;;;;;4971083;28;20082;-78
2023/06/21 10:20:21;;;;;;;13.27;5.85;;;27.40;98.30;;;;;;4970759;28;20093;-75
2023/06/21 10:23:08;;;;;;;8.35;4.18;;;27.40;99.20;;;;;;4972297;28;20528;-74
2023/06/21 10:25:59;;;;;;;7.03;4.15;;;27.20;98.70;;;;;;4971394;28;20191;-79
2023/06/21 10:28:48;;;;;;;6.88;3.97;;;27.30;98.90;;;;;;4972905;28;20073;-78
2023/06/21 10:31:39;;;;;;;6.80;4.07;;;27.50;99.00;;;;;;4970260;28;20065;-80
2023/06/21 10:34:29;;;;;;;7.05;4.05;;;27.50;99.00;;;;;;4971730;28;20554;-81
2023/06/21 10:37:36;;;;;;;11.02;4.03;;;27.80;98.50;;;;;;4972521;28;20054;-79
2023/06/21 10:40:22;;;;;;;7.25;4.00;;;28.00;97.80;;;;;;4972602;28;20050;-81
2023/06/21 10:43:10;;;;;;;9.68;4.65;;;27.80;98.00;;;;;;4977573;28;20046;-75
2023/06/21 10:45:57;;;;;;;9.13;4.20;;;27.90;97.90;;;;;;4985196;28;20058;-79
2023/06/21 10:48:45;;;;;;;5.22;3.10;;;27.90;97.50;;;;;;4969891;28;20384;-78
2023/06/21 10:51:36;;;;;;;6.25;3.97;;;27.80;97.70;;;;;;4971303;28;20435;-78
2023/06/21 10:54:23;;;;;;;5.88;3.15;;;27.80;97.50;;;;;;4970242;28;20491;-75
2023/06/21 10:57:10;;;;;;;6.40;3.10;;;27.40;98.10;;;;;;4974308;28;20046;-77
2023/06/21 11:00:07;;;;;;;6.00;3.13;;;27.10;98.40;;;;;;4974546;28;20495;-76
2023/06/21 11:02:54;;;;;;;5.82;2.85;;;26.90;98.60;;;;;;4979014;28;20553;-78
2023/06/21 11:05:40;;;;;;;13.32;4.47;;;27.40;99.20;;;;;;4973326;28;20499;-79
2023/06/21 11:08:38;;;;;;;7.90;4.30;;;27.40;98.50;;;;;;4974024;28;20054;-78
2023/06/21 11:11:33;;;;;;;8.85;4.22;;;27.50;98.00;;;;;;4963106;28;20050;-76
2023/06/21 11:14:30;;;;;;;10.00;4.10;;;27.20;98.50;;;;;;4985019;28;20549;-76
2023/06/21 11:17:16;;;;;;;9.45;3.60;;;27.60;98.40;;;;;;4957186;28;20085;-76
2023/06/21 11:20:19;;;;;;;11.00;4.55;;;28.00;98.00;;;;;;4954093;29;20751;-74
2023/06/21 11:23:08;;;;;;;10.70;4.32;;;27.80;98.20;;;;;;4954808;28;20456;-76
2023/06/21 11:26:13;;;;;;;11.65;5.22;;;27.50;98.60;;;;;;4957338;28;20057;-78
2023/06/21 11:29:13;;;;;;;8.93;4.80;;;27.20;99.10;;;;;;4954803;28;20065;-80
2023/06/21 11:32:11;;;;;;;12.10;5.53;;;27.10;99.20;;;;;;4970310;28;20061;-81
2023/06/21 11:34:59;;;;;;;15.73;6.28;;;27.30;99.60;;;;;;4970946;28;20761;-83
2023/06/21 11:37:47;;;;;;;14.98;6.40;;;27.40;99.50;;;;;;4954130;28;20924;-81
2023/06/21 11:40:33;;;;;;;12.48;6.18;;;27.20;99.70;;;;;;4974774;28;20054;-79
2023/06/21 11:43:21;;;;;;;17.38;6.43;;;27.20;99.90;;;;;;4974632;28;20497;-81
2023/06/21 11:46:07;;;;;;;13.02;6.60;;;27.10;99.90;;;;;;4972774;28;20051;-84
2023/06/21 11:49:00;;;;;;;14.00;6.40;;;26.80;99.90;;;;;;4972440;28;20086;-80
2023/06/21 11:51:50;;;;;;;16.45;5.90;;;26.70;99.90;;;;;;4973709;28;20101;-79
2023/06/21 11:54:37;;;;;;;15.02;6.40;;;26.90;99.90;;;;;;4975286;28;20046;-80
2023/06/21 11:57:23;;;;;;;14.05;7.00;;;27.10;99.90;;;;;;4957213;28;20114;-80
2023/06/21 12:00:10;;;;;;;17.83;7.55;;;27.30;99.90;;;;;;4976917;28;20058;-81
2023/06/21 12:02:56;;;;;;;17.60;6.15;;;27.30;99.60;;;;;;4944366;28;20163;-79
2023/06/21 12:05:47;;;;;;;12.77;7.10;;;27.10;99.90;;;;;;4956944;28;20150;-80
2023/06/21 12:08:37;;;;;;;13.15;6.40;;;26.80;99.90;;;;;;4957383;28;20046;-79
2023/06/21 12:11:26;;;;;;;15.90;8.93;;;26.60;99.90;;;;;;4973300;28;20055;-81
2023/06/21 12:14:12;;;;;;;17.88;7.75;;;27.10;99.90;;;;;;4954913;28;20062;-78
2023/06/21 12:17:00;;;;;;;17.30;8.63;;;27.40;99.90;;;;;;4948443;28;20192;-79
2023/06/21 12:19:46;;;;;;;15.43;8.63;;;27.10;99.40;;;;;;4970110;28;20078;-81
2023/06/21 12:22:32;;;;;;;20.27;8.25;;;26.70;99.80;;;;;;4955722;28;20081;-75
2023/06/21 12:25:19;;;;;;;17.30;8.93;;;26.80;99.90;;;;;;4955168;28;20065;-76
2023/06/21 12:28:06;;;;;;;14.95;7.72;;;27.10;99.90;;;;;;4954857;28;20065;-81
2023/06/21 12:31:04;;;;;;;16.60;7.63;;;27.80;99.90;;;;;;4972633;28;20047;-78
2023/06/21 12:33:58;;;;;;;18.48;9.00;;;28.00;99.60;;;;;;4971425;28;20049;-80
2023/06/21 12:36:45;;;;;;;20.45;9.20;;;28.30;98.60;;;;;;4971592;28;20050;-82
2023/06/21 12:39:32;;;;;;;14.10;8.25;;;28.00;98.60;;;;;;4941018;28;20055;-79
2023/06/21 12:42:20;;;;;;;12.38;6.80;;;27.90;99.00;;;;;;4952706;28;20856;-76
2023/06/21 12:45:09;;;;;;;13.98;7.88;;;28.10;99.00;;;;;;4971520;28;20047;-77
2023/06/21 12:47:55;;;;;;;16.05;7.97;;;28.40;99.00;;;;;;4971820;28;20050;-83
2023/06/21 12:50:42;;;;;;;18.95;7.38;;;28.90;98.70;;;;;;4955143;28;20062;-78
2023/06/21 12:53:31;;;;;;;15.75;6.90;;;29.00;97.60;;;;;;4973583;28;20081;-81
2023/06/21 12:56:17;;;;;;;17.10;7.55;;;29.40;97.20;;;;;;4941487;28;20043;-76
2023/06/21 12:59:04;;;;;;;15.05;7.78;;;29.10;97.20;;;;;;4972870;28;20055;-73
2023/06/21 13:01:50;;;;;;;16.25;8.02;;;29.10;97.00;;;;;;4976855;28;20137;-82
2023/06/21 13:04:36;;;;;;;15.43;7.05;;;29.60;96.70;;;;;;4961913;28;20054;-81
2023/06/21 13:07:22;;;;;;;14.95;7.07;;;29.90;96.90;;;;;;4955650;28;20136;-81
2023/06/21 13:10:08;;;;;;;12.77;7.53;;;30.30;96.90;;;;;;4953763;28;20090;-80
2023/06/21 13:12:54;;;;;;;14.55;8.00;;;30.50;96.10;;;;;;4972114;28;20051;-79
2023/06/21 13:15:40;;;;;;;18.00;9.57;;;30.70;95.70;;;;;;4955219;28;20492;-83
2023/06/21 13:18:27;;;;;;;18.02;8.82;;;30.30;95.40;;;;;;4971924;28;20046;-86
2023/06/21 13:21:16;;;;;;;15.23;7.90;;;29.80;95.70;;;;;;4971901;28;20069;-84
2023/06/21 13:24:02;;;;;;;12.82;7.03;;;29.80;96.00;;;;;;4972498;28;20058;-83
2023/06/21 13:26:48;;;;;;;14.60;8.25;;;30.20;95.70;;;;;;4971019;28;20050;-83
2023/06/21 13:29:34;;;;;;;17.15;8.38;;;29.80;95.50;;;;;;4958213;28;20105;-80
2023/06/21 13:32:20;;;;;;;11.35;8.27;;;30.20;95.40;;;;;;4957619;28;20051;-82
2023/06/21 13:35:07;;;;;;;15.38;7.95;;;29.80;95.50;;;;;;4955002;28;20470;-82
2023/06/21 13:37:53;;;;;;;11.65;6.88;;;29.70;96.00;;;;;;4954043;28;20058;-79
2023/06/21 13:40:40;;;;;;;15.20;6.72;;;29.80;96.20;;;;;;4953651;28;20050;-78
2023/06/21 13:43:26;;;;;;;12.57;5.80;;;30.10;96.50;;;;;;4971196;28;20039;-84
2023/06/21 13:46:12;;;;;;;14.48;6.20;;;30.40;96.10;;;;;;4969259;28;20594;-80
2023/06/21 13:48:58;;;;;;;13.93;6.45;;;30.50;95.30;;;;;;4970617;28;20059;-78
2023/06/21 13:51:44;;;;;;;10.45;4.88;;;31.00;94.00;;;;;;4956317;28;20511;-80
2023/06/21 13:54:29;;;;;;;8.73;5.13;;;31.00;94.20;;;;;;4969481;28;20106;-78
2023/06/21 13:57:16;;;;;;;11.13;5.85;;;31.20;93.30;;;;;;4969642;28;20549;-84
2023/06/21 14:00:04;;;;;;;11.32;6.32;;;31.40;93.60;;;;;;4976742;28;20042;-81
2023/06/21 14:02:51;;;;;;;10.27;6.80;;;31.00;93.40;;;;;;4978059;28;20055;-81
2023/06/21 14:05:37;;;;;;;9.55;5.50;;;31.20;93.20;;;;;;4979786;28;20426;-83
2023/06/21 14:08:23;;;;;;;8.85;4.68;;;30.90;93.60;;;;;;4956739;28;20496;-84
2023/06/21 14:11:10;;;;;;;11.10;6.22;;;30.90;93.20;;;;;;4971626;28;20050;-81
2023/06/21 14:13:56;;;;;;;10.35;6.22;;;30.70;93.30;;;;;;4971463;28;20039;-84
2023/06/21 14:16:42;;;;;;;14.13;5.78;;;30.90;93.10;;;;;;4957066;28;20049;-80
2023/06/21 14:19:28;;;;;;;12.13;7.22;;;30.80;93.40;;;;;;4952725;28;20058;-82